Impacts METAR Board
IDs:

KCNW - Waco/Texas State Tec, TX, US

Updated at: 1200 UTC 16 Jul 2019
Potential Impact None Slight Moderate High
Time 16/00Z 16/01Z 16/02Z 16/03Z 16/04Z 16/05Z 16/06Z 16/07Z 16/08Z 16/09Z 16/10Z 16/11Z 16/12Z
Temp95 91 88 84 82 77
Dewpt70 72 73 68 68 73
Altim29.85 29.86 29.87 29.89 29.91 29.97
VIS10 10 10 10 10 10
CIG-- -- -- -- -- --
CoverSKCSKCSKCSKCSKCSKC
FltCatVFRVFRVFRVFRVFRVFR
WX------------
WDir140015015000
WSpd5 0 8 6 0 0
WGst-- -- -- -- -- --
Raw hourly METARs
KCNW 152355Z 14005KT 10SM SKC 35/21 A2985
KCNW 160055Z 00000KT 10SM SKC 33/22 A2986
KCNW 160155Z 15008KT 10SM SKC 31/23 A2987
KCNW 160255Z 15006KT 10SM SKC 29/20 A2989
KCNW 160355Z 00000KT 10SM SKC 28/20 A2991







KCNW 161155Z 00000KT 10SM SKC 25/23 A2997